Golden Dolphin — WYZ5247 — position and weather

sailwx.info

Track history (hours):
 
Tides and Currents Weather Stations Pressure Air Temp Water Temp Dewpoint Dewpoint Depression Visibility Wind Speed Wind Dir Waves Ship Positions

Oceanographic research ship Golden Dolphin (USA)

Owner: ROSS LABORATORIES INC, SEATTLE, WA. More information available from US FCC via Universal Licensing System and Coast Guard Vessel Documentation Center.

Last reported at 2017-Jan-27 02:33 UTC. Time now 2017-Mar-23 14:13 UTC.
Position N 47°39' W 122°23'.
Warning: this ship's position is 55 days out of date.

; draft 2.2 m.

Type: Dredging. MMSI: 367117140.

Date/timePositionNaut miles runAvg speedWind from/ knotsBaromVisibWave heightAir tempDewpointWater temp
2017-Jan-27 02:33N 47°39' W 122°23'2 2.1
2017-Jan-27 01:33N 47°40' W 122°25'3 3.3
2017-Jan-27 00:33N 47°44' W 122°24'2 1.7
2017-Jan-26 23:33N 47°45' W 122°25'2 2.2
2017-Jan-26 22:33N 47°43' W 122°26'2 2.2
2017-Jan-26 21:33N 47°41' W 122°26'0 0.5
2017-Jan-26 20:33N 47°40' W 122°26'0 0.3
2017-Jan-26 19:33N 47°40' W 122°26'0 0.1
2017-Jan-26 18:33N 47°40' W 122°26'0 0.2
2017-Jan-26 17:33N 47°40' W 122°25'2 2.0
2017-Jan-26 16:31N 47°39' W 122°23'  
2017-Jan-23 21:33N 47°39' W 122°23'5 4.7
2017-Jan-23 20:32N 47°40' W 122°16'1 0.6
2017-Jan-23 19:33N 47°40' W 122°15'1 1.0
2017-Jan-23 18:33N 47°39' W 122°16'3 3.2
2017-Jan-23 17:33N 47°39' W 122°20'2 1.7
2017-Jan-23 16:30N 47°39' W 122°23'  
Track history (hours):
 
Tides and Currents Weather Stations Pressure Air Temp Water Temp Dewpoint Dewpoint Depression Visibility Wind Speed Wind Dir Waves Ship Positions

Oceanographic research ship Golden Dolphin (USA)

Owner: ROSS LABORATORIES INC, SEATTLE, WA. More information available from US FCC via Universal Licensing System and Coast Guard Vessel Documentation Center.

Last reported at 2017-Jan-27 02:33 UTC. Time now 2017-Mar-23 14:13 UTC.
Position N 47°39' W 122°23'.
Warning: this ship's position is 55 days out of date.

; draft 2.2 m.

Type: Dredging. MMSI: 367117140.

Date/timePositionNaut miles runAvg speedWind from/ knotsBaromVisibWave heightAir tempDewpointWater temp
2017-Jan-27 02:33N 47°39' W 122°23'2 2.1
2017-Jan-27 01:33N 47°40' W 122°25'3 3.3
2017-Jan-27 00:33N 47°44' W 122°24'2 1.7
2017-Jan-26 23:33N 47°45' W 122°25'2 2.2
2017-Jan-26 22:33N 47°43' W 122°26'2 2.2
2017-Jan-26 21:33N 47°41' W 122°26'0 0.5
2017-Jan-26 20:33N 47°40' W 122°26'0 0.3
2017-Jan-26 19:33N 47°40' W 122°26'0 0.1
2017-Jan-26 18:33N 47°40' W 122°26'0 0.2
2017-Jan-26 17:33N 47°40' W 122°25'2 2.0
2017-Jan-26 16:31N 47°39' W 122°23'  
2017-Jan-23 21:33N 47°39' W 122°23'5 4.7
2017-Jan-23 20:32N 47°40' W 122°16'1 0.6
2017-Jan-23 19:33N 47°40' W 122°15'1 1.0
2017-Jan-23 18:33N 47°39' W 122°16'3 3.2
2017-Jan-23 17:33N 47°39' W 122°20'2 1.7
2017-Jan-23 16:30N 47°39' W 122°23'  

Dump ship's entire track history